createdAt,value
2017-06-22T00:01:08.659Z,22.90
2017-06-22T00:03:36.159Z,22.90
2017-06-22T00:06:04.468Z,22.90
2017-06-22T00:08:32.727Z,22.80
2017-06-22T00:11:01.000Z,22.70
2017-06-22T00:13:29.298Z,22.70
2017-06-22T00:15:57.569Z,22.70
2017-06-22T00:18:25.824Z,22.70
2017-06-22T00:20:54.116Z,22.60
2017-06-22T00:23:22.417Z,22.60
2017-06-22T00:25:50.681Z,22.50
2017-06-22T00:28:18.944Z,22.50
2017-06-22T00:30:47.253Z,22.50
2017-06-22T00:33:15.531Z,22.60
2017-06-22T00:35:43.813Z,22.60
2017-06-22T00:38:12.090Z,22.50
2017-06-22T00:40:40.405Z,22.50
2017-06-22T00:43:08.669Z,22.50
2017-06-22T00:45:36.929Z,22.50
2017-06-22T00:48:05.212Z,22.50
2017-06-22T00:50:33.475Z,22.50
2017-06-22T00:53:01.761Z,22.50
2017-06-22T00:55:30.034Z,22.50
2017-06-22T00:57:58.316Z,22.50
2017-06-22T01:00:25.815Z,22.50
2017-06-22T01:02:54.115Z,22.50
2017-06-22T01:05:22.392Z,22.40
2017-06-22T01:07:50.649Z,22.30
2017-06-22T01:10:18.944Z,22.20
2017-06-22T01:12:47.205Z,22.20
2017-06-22T01:15:14.732Z,22.20
2017-06-22T01:17:43.016Z,22.20
2017-06-22T01:20:11.283Z,22.20
2017-06-22T01:22:39.575Z,22.20
2017-06-22T01:25:07.863Z,22.10
2017-06-22T01:27:36.131Z,22.10
2017-06-22T01:30:04.435Z,22.10
2017-06-22T01:32:32.693Z,22.10
2017-06-22T01:35:00.988Z,22.10
2017-06-22T01:37:29.254Z,22.00
2017-06-22T01:39:57.554Z,22.10
2017-06-22T01:42:25.826Z,22.10
2017-06-22T01:44:54.142Z,22.10
2017-06-22T01:47:22.445Z,22.00
2017-06-22T01:49:50.712Z,22.10
2017-06-22T01:52:19.008Z,22.00
2017-06-22T01:54:47.279Z,21.90
2017-06-22T01:57:15.541Z,21.90
2017-06-22T01:59:43.836Z,21.70
2017-06-22T02:02:12.104Z,21.80
2017-06-22T02:04:40.396Z,21.70
2017-06-22T02:07:08.823Z,21.70
2017-06-22T02:09:37.113Z,21.70
2017-06-22T02:12:05.382Z,21.70
2017-06-22T02:14:34.034Z,21.60
2017-06-22T02:17:02.305Z,21.60
2017-06-22T02:19:29.831Z,21.60
2017-06-22T02:21:58.105Z,21.50
2017-06-22T02:24:26.431Z,21.50
2017-06-22T02:26:54.690Z,21.60
2017-06-22T02:29:22.960Z,21.50
2017-06-22T02:31:51.267Z,21.50
2017-06-22T02:34:19.528Z,21.50
2017-06-22T02:36:47.819Z,21.50
2017-06-22T02:39:16.075Z,21.60
2017-06-22T02:41:44.368Z,21.60
2017-06-22T02:44:12.626Z,21.60
2017-06-22T02:46:40.928Z,21.60
2017-06-22T02:49:09.199Z,21.50
2017-06-22T02:51:37.467Z,21.50
2017-06-22T02:54:05.764Z,21.50
2017-06-22T02:56:33.265Z,21.50
2017-06-22T02:59:01.555Z,21.50
2017-06-22T03:01:29.822Z,21.50
2017-06-22T03:03:58.122Z,21.50
2017-06-22T03:06:26.387Z,21.50
2017-06-22T03:08:55.076Z,21.50
2017-06-22T03:11:23.372Z,21.40
2017-06-22T03:13:51.680Z,21.40
2017-06-22T03:16:23.264Z,21.30
2017-06-22T03:18:51.558Z,21.40
2017-06-22T03:21:19.852Z,21.30
2017-06-22T03:23:48.116Z,21.30
2017-06-22T03:26:16.418Z,21.30
2017-06-22T03:28:44.678Z,21.30
2017-06-22T03:31:12.975Z,21.30
2017-06-22T03:33:41.235Z,21.30
2017-06-22T03:36:09.520Z,21.30
2017-06-22T03:38:37.784Z,21.30
2017-06-22T03:41:06.936Z,21.30
2017-06-22T03:43:35.563Z,21.30
2017-06-22T03:46:03.834Z,21.30
2017-06-22T03:48:32.128Z,21.40
2017-06-22T03:51:00.389Z,21.40
2017-06-22T03:53:28.676Z,21.40
2017-06-22T03:55:56.957Z,21.30
2017-06-22T03:58:25.246Z,21.40
2017-06-22T04:00:53.521Z,21.40
2017-06-22T04:03:21.829Z,21.30
2017-06-22T04:05:50.096Z,21.30
2017-06-22T04:08:18.365Z,21.30
2017-06-22T04:10:45.903Z,21.30
2017-06-22T04:13:14.173Z,21.40
2017-06-22T04:15:42.468Z,21.50
2017-06-22T04:18:10.726Z,21.50
2017-06-22T04:20:39.032Z,21.50
2017-06-22T04:23:07.291Z,21.50
2017-06-22T04:25:35.588Z,21.50
2017-06-22T04:28:03.886Z,21.60
2017-06-22T04:30:32.153Z,21.60
2017-06-22T04:33:00.440Z,21.60
2017-06-22T04:35:28.745Z,21.60
2017-06-22T04:37:57.014Z,21.70
2017-06-22T04:40:24.547Z,21.70
2017-06-22T04:42:52.816Z,21.80
2017-06-22T04:45:21.127Z,21.80
2017-06-22T04:47:49.395Z,21.90
2017-06-22T04:50:17.663Z,21.90
2017-06-22T04:52:45.973Z,21.90
2017-06-22T04:55:14.245Z,21.90
2017-06-22T04:57:42.506Z,22.00
2017-06-22T05:00:10.811Z,22.00
2017-06-22T05:02:39.093Z,22.00
2017-06-22T05:05:07.354Z,22.00
2017-06-22T05:07:35.670Z,22.10
2017-06-22T05:10:03.936Z,22.20
2017-06-22T05:12:32.240Z,22.20
2017-06-22T05:15:00.500Z,22.20
2017-06-22T05:17:28.799Z,22.40
2017-06-22T05:19:57.105Z,22.50
2017-06-22T05:22:25.372Z,22.60
2017-06-22T05:24:53.669Z,22.70
2017-06-22T05:27:21.956Z,22.70
2017-06-22T05:29:50.256Z,22.80
2017-06-22T05:32:18.517Z,22.80
2017-06-22T05:34:46.808Z,22.90
2017-06-22T05:37:15.104Z,22.90
2017-06-22T05:39:43.368Z,23.00
2017-06-22T05:42:11.677Z,22.90
2017-06-22T05:44:39.960Z,23.00
2017-06-22T05:47:08.274Z,23.10
2017-06-22T05:49:36.535Z,23.30
2017-06-22T05:52:04.800Z,23.40
2017-06-22T05:54:33.323Z,23.40
2017-06-22T05:57:01.625Z,23.50
2017-06-22T05:59:29.887Z,23.60
2017-06-22T06:01:58.179Z,23.70
2017-06-22T06:04:26.452Z,23.70
2017-06-22T06:06:54.739Z,23.70
2017-06-22T06:09:23.043Z,23.80
2017-06-22T06:11:51.313Z,23.90
2017-06-22T06:14:19.596Z,23.90
2017-06-22T06:16:47.883Z,24.20
2017-06-22T06:19:15.387Z,24.10
2017-06-22T06:21:43.689Z,24.30
2017-06-22T06:24:11.948Z,24.30
2017-06-22T06:26:40.264Z,24.40
2017-06-22T06:29:08.532Z,24.50
2017-06-22T06:31:36.801Z,24.50
2017-06-22T06:34:05.124Z,24.50
2017-06-22T06:36:33.391Z,24.60
2017-06-22T06:39:01.693Z,24.60
2017-06-22T06:41:29.969Z,24.80
2017-06-22T06:43:58.261Z,24.70
2017-06-22T06:46:26.561Z,24.90
2017-06-22T06:48:54.835Z,25.10
2017-06-22T06:51:23.149Z,25.20
2017-06-22T06:53:51.425Z,25.20
2017-06-22T06:56:19.691Z,25.20
2017-06-22T06:58:48.011Z,25.30
2017-06-22T07:01:16.284Z,25.40
2017-06-22T07:03:44.553Z,25.40
2017-06-22T07:06:12.857Z,25.40
2017-06-22T07:08:41.132Z,25.60
2017-06-22T07:11:09.424Z,25.70
2017-06-22T07:13:37.682Z,26.00
2017-06-22T07:16:05.980Z,26.20
2017-06-22T07:18:34.251Z,26.50
2017-06-22T07:21:02.558Z,26.70
2017-06-22T07:23:30.819Z,26.70
2017-06-22T07:25:59.080Z,26.60
2017-06-22T07:28:27.424Z,26.60
2017-06-22T07:30:55.680Z,26.60
2017-06-22T07:33:23.945Z,26.70
2017-06-22T07:35:52.268Z,26.90
2017-06-22T07:38:20.543Z,26.90
2017-06-22T07:40:48.087Z,26.90
2017-06-22T07:43:16.364Z,27.20
2017-06-22T07:45:44.672Z,27.50
2017-06-22T07:48:12.942Z,27.40
2017-06-22T07:50:41.216Z,27.40
2017-06-22T07:53:09.528Z,27.60
2017-06-22T07:55:37.808Z,27.70
2017-06-22T07:58:06.117Z,27.80
2017-06-22T08:00:34.436Z,27.80
2017-06-22T08:03:02.701Z,27.90
2017-06-22T08:05:30.977Z,28.00
2017-06-22T08:07:59.280Z,28.30
2017-06-22T08:10:27.585Z,28.40
2017-06-22T08:12:55.905Z,28.50
2017-06-22T08:15:24.176Z,28.60
2017-06-22T08:17:52.468Z,28.70
2017-06-22T08:20:20.779Z,29.00
2017-06-22T08:22:49.048Z,28.90
2017-06-22T08:25:17.351Z,29.00
2017-06-22T08:27:45.642Z,29.10
2017-06-22T08:30:13.206Z,29.10
2017-06-22T08:32:41.479Z,29.40
2017-06-22T08:35:09.742Z,29.50
2017-06-22T08:37:38.032Z,29.40
2017-06-22T08:40:06.303Z,29.60
2017-06-22T08:42:34.605Z,29.70
2017-06-22T08:45:02.873Z,29.80
2017-06-22T08:47:31.185Z,29.70
2017-06-22T08:49:59.461Z,29.70
2017-06-22T08:52:27.737Z,30.00
2017-06-22T08:54:56.041Z,30.00
2017-06-22T08:57:24.308Z,30.10
2017-06-22T08:59:51.836Z,30.00
2017-06-22T09:02:20.114Z,30.20
2017-06-22T09:04:48.426Z,30.40
2017-06-22T09:07:15.935Z,30.40
2017-06-22T09:09:44.212Z,30.60
2017-06-22T09:12:12.500Z,30.40
2017-06-22T09:14:40.768Z,30.30
2017-06-22T09:17:09.070Z,30.50
2017-06-22T09:19:37.344Z,30.60
2017-06-22T09:22:05.671Z,30.60
2017-06-22T09:24:33.935Z,30.80
2017-06-22T09:27:01.450Z,30.80
2017-06-22T09:29:29.750Z,31.20
2017-06-22T09:31:58.016Z,31.40
2017-06-22T09:34:26.306Z,31.50
2017-06-22T09:36:54.579Z,31.50
2017-06-22T09:39:22.880Z,31.50
2017-06-22T09:41:51.221Z,31.50
2017-06-22T09:44:19.489Z,31.50
2017-06-22T09:46:47.771Z,31.60
2017-06-22T09:49:16.067Z,31.50
2017-06-22T09:51:44.344Z,31.30
2017-06-22T09:54:12.686Z,31.30
2017-06-22T09:56:40.955Z,31.30
2017-06-22T09:59:09.275Z,31.50
2017-06-22T10:01:37.547Z,31.60
2017-06-22T10:04:05.818Z,31.70
2017-06-22T10:06:34.127Z,31.70
2017-06-22T10:09:02.397Z,31.80
2017-06-22T10:11:30.701Z,32.10
2017-06-22T10:13:58.970Z,32.20
2017-06-22T10:16:27.270Z,32.30
2017-06-22T10:18:54.770Z,32.30
2017-06-22T10:21:23.071Z,32.50
2017-06-22T10:23:51.351Z,32.30
2017-06-22T10:26:19.625Z,32.30
2017-06-22T10:28:47.931Z,32.30
2017-06-22T10:31:16.208Z,32.40
2017-06-22T10:33:44.485Z,32.50
2017-06-22T10:36:12.779Z,32.60
2017-06-22T10:38:41.068Z,32.70
2017-06-22T10:41:09.327Z,32.60
2017-06-22T10:43:37.624Z,32.60
2017-06-22T10:46:05.894Z,32.50
2017-06-22T10:48:34.192Z,32.50
2017-06-22T10:51:02.464Z,32.60
2017-06-22T10:53:30.758Z,32.60
2017-06-22T10:55:59.062Z,32.70
2017-06-22T10:58:27.336Z,32.90
2017-06-22T11:00:55.593Z,33.00
2017-06-22T11:03:23.878Z,33.10
2017-06-22T11:05:52.150Z,33.20
2017-06-22T11:08:20.460Z,33.10
2017-06-22T11:10:48.729Z,33.10
2017-06-22T11:13:17.029Z,33.20
2017-06-22T11:15:45.309Z,33.40
2017-06-22T11:18:13.604Z,33.50
2017-06-22T11:20:41.877Z,33.20
2017-06-22T11:23:10.155Z,33.40
2017-06-22T11:25:38.460Z,33.40
2017-06-22T11:28:06.735Z,33.50
2017-06-22T11:30:35.035Z,33.50
2017-06-22T11:33:03.313Z,33.50
2017-06-22T11:35:31.614Z,33.50
2017-06-22T11:37:59.892Z,33.60
2017-06-22T11:40:28.172Z,33.60
2017-06-22T11:42:56.489Z,33.50
2017-06-22T11:45:24.777Z,33.60
2017-06-22T11:47:53.050Z,33.90
2017-06-22T11:50:21.348Z,34.00
2017-06-22T11:52:49.620Z,34.00
2017-06-22T11:55:17.918Z,34.00
2017-06-22T11:57:46.231Z,34.10
2017-06-22T12:00:14.502Z,34.10
2017-06-22T12:02:42.811Z,34.20
2017-06-22T12:05:11.108Z,34.30
2017-06-22T12:07:39.387Z,34.50
2017-06-22T12:10:07.686Z,34.50
2017-06-22T12:12:35.961Z,34.40
2017-06-22T12:15:04.272Z,34.50
2017-06-22T12:17:32.549Z,34.60
2017-06-22T12:20:00.822Z,34.60
2017-06-22T12:22:29.134Z,34.50
2017-06-22T12:24:57.410Z,34.60
2017-06-22T12:27:25.691Z,34.50
2017-06-22T12:29:54.003Z,34.60
2017-06-22T12:32:22.271Z,34.70
2017-06-22T12:34:50.565Z,34.50
2017-06-22T12:37:18.842Z,34.60
2017-06-22T12:39:47.136Z,34.80
2017-06-22T12:42:15.407Z,34.90
2017-06-22T12:44:43.719Z,34.80
2017-06-22T12:47:11.992Z,34.90
2017-06-22T12:49:40.264Z,34.80
2017-06-22T12:52:08.559Z,34.80
2017-06-22T12:54:36.824Z,34.80
2017-06-22T12:57:05.130Z,34.70
2017-06-22T12:59:33.404Z,34.80
2017-06-22T13:02:01.711Z,34.80
2017-06-22T13:04:29.981Z,34.90
2017-06-22T13:06:58.244Z,34.90
2017-06-22T13:09:26.530Z,35.00
2017-06-22T13:11:54.795Z,35.00
2017-06-22T13:14:23.101Z,35.20
2017-06-22T13:16:51.364Z,35.20
2017-06-22T13:19:19.630Z,35.20
2017-06-22T13:21:47.936Z,35.10
2017-06-22T13:24:16.204Z,35.10
2017-06-22T13:26:44.482Z,35.30
2017-06-22T13:29:12.784Z,35.30
2017-06-22T13:31:41.069Z,35.20
2017-06-22T13:34:09.359Z,35.30
2017-06-22T13:36:37.638Z,35.40
2017-06-22T13:39:05.944Z,35.60
2017-06-22T13:41:34.244Z,35.50
2017-06-22T13:44:02.525Z,35.50
2017-06-22T13:46:30.834Z,35.50
2017-06-22T13:48:59.105Z,35.50
2017-06-22T13:51:27.392Z,35.50
2017-06-22T13:53:55.654Z,35.50
2017-06-22T13:56:23.970Z,35.60
2017-06-22T13:58:52.239Z,35.70
2017-06-22T14:01:20.520Z,35.50
2017-06-22T14:03:48.814Z,35.30
2017-06-22T14:06:17.080Z,35.10
2017-06-22T14:08:45.388Z,35.20
2017-06-22T14:11:13.660Z,35.30
2017-06-22T14:13:41.922Z,35.30
2017-06-22T14:16:10.228Z,35.30
2017-06-22T14:18:38.492Z,35.20
2017-06-22T14:21:06.799Z,35.30
2017-06-22T14:23:35.072Z,35.10
2017-06-22T14:26:02.613Z,35.10
2017-06-22T14:28:30.883Z,35.10
2017-06-22T14:30:59.148Z,35.00
2017-06-22T14:33:27.453Z,34.90
2017-06-22T14:35:55.712Z,35.00
2017-06-22T14:38:23.256Z,35.00
2017-06-22T14:40:51.522Z,35.20
2017-06-22T14:43:19.784Z,35.30
2017-06-22T14:45:48.097Z,35.30
2017-06-22T14:48:16.359Z,35.30
2017-06-22T14:50:45.033Z,35.10
2017-06-22T14:53:13.306Z,34.90
2017-06-22T14:55:41.567Z,34.90
2017-06-22T14:58:09.863Z,35.00
2017-06-22T15:00:38.136Z,35.00
2017-06-22T15:03:06.428Z,34.80
2017-06-22T15:05:34.700Z,34.60
2017-06-22T15:08:03.009Z,34.50
2017-06-22T15:10:31.289Z,34.20
2017-06-22T15:12:59.557Z,34.40
2017-06-22T15:15:27.852Z,34.40
2017-06-22T15:17:56.168Z,34.30
2017-06-22T15:20:24.484Z,34.20
2017-06-22T15:22:52.758Z,34.10
2017-06-22T15:25:21.032Z,33.90
2017-06-22T15:27:49.332Z,34.00
2017-06-22T15:30:16.836Z,34.00
2017-06-22T15:32:45.130Z,34.30
2017-06-22T15:35:13.407Z,34.40
2017-06-22T15:37:41.721Z,34.40
2017-06-22T15:40:09.981Z,34.40
2017-06-22T15:42:39.192Z,34.40
2017-06-22T15:45:07.495Z,34.40
2017-06-22T15:47:35.766Z,34.40
2017-06-22T15:50:04.062Z,34.40
2017-06-22T15:52:32.327Z,34.20
2017-06-22T15:55:00.636Z,33.90
2017-06-22T15:57:28.902Z,33.70
2017-06-22T15:59:57.175Z,33.60
2017-06-22T16:02:25.475Z,33.50
2017-06-22T16:04:53.745Z,33.50
2017-06-22T16:07:22.049Z,33.30
2017-06-22T16:09:50.326Z,33.20
2017-06-22T16:12:18.589Z,32.90
2017-06-22T16:14:46.887Z,32.60
2017-06-22T16:17:15.184Z,32.30
2017-06-22T16:19:43.450Z,32.10
2017-06-22T16:22:11.754Z,31.80
2017-06-22T16:24:40.034Z,31.70
2017-06-22T16:27:08.339Z,31.50
2017-06-22T16:29:36.610Z,31.50
2017-06-22T16:32:04.919Z,31.50
2017-06-22T16:34:33.213Z,31.50
2017-06-22T16:37:01.484Z,31.40
2017-06-22T16:39:29.791Z,31.40
2017-06-22T16:41:58.062Z,31.20
2017-06-22T16:44:26.364Z,30.90
2017-06-22T16:46:54.627Z,30.70
2017-06-22T16:49:22.940Z,30.60
2017-06-22T16:51:51.204Z,30.30
2017-06-22T16:54:19.503Z,29.90
2017-06-22T16:56:47.764Z,29.50
2017-06-22T16:59:16.051Z,29.30
2017-06-22T17:01:44.357Z,29.10
2017-06-22T17:04:11.855Z,29.10
2017-06-22T17:06:40.151Z,28.90
2017-06-22T17:09:08.416Z,28.80
2017-06-22T17:11:36.675Z,28.60
2017-06-22T17:14:04.984Z,28.30
2017-06-22T17:16:33.247Z,27.70
2017-06-22T17:19:01.552Z,27.10
2017-06-22T17:21:29.857Z,26.80
2017-06-22T17:23:58.128Z,26.70
2017-06-22T17:26:26.439Z,26.50
2017-06-22T17:28:54.712Z,26.50
2017-06-22T17:31:23.054Z,26.50
2017-06-22T17:33:51.357Z,26.40
2017-06-22T17:36:19.639Z,26.40
2017-06-22T17:38:47.936Z,26.30
2017-06-22T17:41:16.210Z,26.40
2017-06-22T17:43:44.507Z,26.50
2017-06-22T17:46:12.772Z,26.60
2017-06-22T17:48:42.019Z,26.50
2017-06-22T17:51:10.291Z,26.70
2017-06-22T17:53:38.579Z,26.70
2017-06-22T17:56:06.836Z,26.70
2017-06-22T17:58:35.134Z,26.50
2017-06-22T18:01:03.448Z,26.50
2017-06-22T18:03:31.722Z,26.30
2017-06-22T18:05:59.982Z,26.00
2017-06-22T18:08:28.268Z,25.50
2017-06-22T18:10:56.533Z,25.30
2017-06-22T18:13:24.833Z,25.10
2017-06-22T18:15:53.145Z,25.10
2017-06-22T18:18:21.411Z,24.90
2017-06-22T18:20:49.680Z,24.80
2017-06-22T18:23:17.986Z,24.90
2017-06-22T18:25:46.275Z,24.70
2017-06-22T18:28:14.537Z,24.70
2017-06-22T18:30:42.852Z,24.60
2017-06-22T18:33:11.125Z,24.10
2017-06-22T18:35:39.423Z,23.90
2017-06-22T18:38:07.782Z,23.60
2017-06-22T18:40:36.051Z,23.50
2017-06-22T18:43:04.324Z,23.50
2017-06-22T18:45:32.622Z,23.50
2017-06-22T18:48:00.885Z,23.50
2017-06-22T18:50:29.185Z,23.50
2017-06-22T18:52:57.455Z,23.30
2017-06-22T18:55:25.774Z,23.30
2017-06-22T18:57:54.046Z,23.30
2017-06-22T19:00:22.328Z,23.40
2017-06-22T19:02:50.629Z,23.50
2017-06-22T19:05:18.902Z,23.30
2017-06-22T19:07:47.223Z,23.50
2017-06-22T19:10:15.506Z,23.50
2017-06-22T19:12:43.816Z,23.50
2017-06-22T19:15:12.089Z,23.50
2017-06-22T19:17:40.375Z,23.40
2017-06-22T19:20:08.697Z,23.50
2017-06-22T19:22:36.967Z,23.40
2017-06-22T19:25:05.227Z,23.40
2017-06-22T19:27:33.544Z,23.30
2017-06-22T19:30:01.875Z,23.30
2017-06-22T19:32:30.152Z,23.40
2017-06-22T19:34:58.420Z,23.20
2017-06-22T19:37:26.737Z,23.10
2017-06-22T19:39:55.040Z,23.00
2017-06-22T19:42:23.311Z,22.90
2017-06-22T19:44:51.668Z,23.00
2017-06-22T19:47:19.940Z,22.90
2017-06-22T19:49:48.243Z,22.90
2017-06-22T19:52:16.530Z,22.80
2017-06-22T19:54:44.840Z,22.80
2017-06-22T19:57:13.115Z,22.80
2017-06-22T19:59:41.462Z,22.80
2017-06-22T20:02:09.752Z,22.70
2017-06-22T20:04:38.066Z,22.70
2017-06-22T20:07:06.334Z,22.70
2017-06-22T20:09:34.611Z,22.80
2017-06-22T20:12:02.916Z,22.90
2017-06-22T20:14:31.236Z,22.90
2017-06-22T20:16:59.510Z,22.90
2017-06-22T20:19:27.780Z,22.80
2017-06-22T20:21:56.092Z,22.80
2017-06-22T20:24:24.361Z,22.80
2017-06-22T20:26:52.623Z,22.70
2017-06-22T20:29:20.929Z,22.80
2017-06-22T20:31:49.227Z,22.90
2017-06-22T20:34:17.512Z,22.80
2017-06-22T20:36:45.775Z,22.60
2017-06-22T20:39:14.095Z,22.50
2017-06-22T20:41:42.469Z,22.50
2017-06-22T20:44:10.771Z,22.60
2017-06-22T20:46:39.090Z,22.60
2017-06-22T20:49:07.356Z,22.60
2017-06-22T20:51:35.615Z,22.60
2017-06-22T20:54:03.933Z,22.40
2017-06-22T20:56:32.210Z,22.20
2017-06-22T20:59:00.483Z,22.20
2017-06-22T21:01:28.789Z,22.20
2017-06-22T21:03:57.057Z,22.20
2017-06-22T21:06:25.366Z,22.10
2017-06-22T21:08:53.704Z,22.00
2017-06-22T21:11:21.963Z,22.10
2017-06-22T21:13:50.281Z,22.10
2017-06-22T21:16:18.551Z,22.10
2017-06-22T21:18:46.824Z,22.10
2017-06-22T21:21:15.128Z,22.10
2017-06-22T21:23:43.399Z,21.90
2017-06-22T21:26:11.696Z,21.80
2017-06-22T21:28:39.963Z,21.90
2017-06-22T21:31:08.270Z,22.00
2017-06-22T21:33:36.543Z,21.90
2017-06-22T21:36:04.847Z,21.90
2017-06-22T21:38:33.143Z,22.10
2017-06-22T21:41:01.408Z,22.00
2017-06-22T21:43:29.709Z,22.00
2017-06-22T21:45:57.996Z,21.90
2017-06-22T21:48:26.263Z,21.80
2017-06-22T21:50:54.566Z,21.60
2017-06-22T21:53:22.888Z,21.50
2017-06-22T21:55:51.160Z,21.60
2017-06-22T21:58:19.450Z,21.50
2017-06-22T22:00:47.745Z,21.50
2017-06-22T22:03:16.022Z,21.40
2017-06-22T22:05:44.325Z,21.30
2017-06-22T22:08:12.583Z,21.10
2017-06-22T22:10:40.879Z,21.20
2017-06-22T22:13:09.143Z,21.20
2017-06-22T22:15:37.429Z,21.30
2017-06-22T22:18:05.690Z,21.40
2017-06-22T22:20:33.999Z,21.30
2017-06-22T22:23:02.317Z,21.30
2017-06-22T22:25:29.832Z,21.30
2017-06-22T22:27:58.128Z,21.20
2017-06-22T22:30:26.401Z,21.30
2017-06-22T22:32:54.705Z,21.20
2017-06-22T22:35:22.212Z,21.20
2017-06-22T22:37:50.525Z,21.20
2017-06-22T22:40:18.793Z,21.00
2017-06-22T22:42:47.132Z,21.20
2017-06-22T22:45:15.406Z,21.20
2017-06-22T22:47:43.678Z,21.30
2017-06-22T22:50:11.976Z,21.30
2017-06-22T22:52:40.251Z,21.10
2017-06-22T22:55:08.557Z,21.00
2017-06-22T22:57:36.830Z,20.90
2017-06-22T23:00:05.163Z,20.90
2017-06-22T23:02:33.447Z,20.90
2017-06-22T23:05:01.714Z,20.80
2017-06-22T23:07:30.008Z,20.80
2017-06-22T23:09:58.276Z,20.80
2017-06-22T23:12:26.573Z,21.00
2017-06-22T23:14:54.840Z,21.20
2017-06-22T23:17:23.153Z,21.10
2017-06-22T23:19:51.424Z,21.00
2017-06-22T23:22:19.736Z,21.00
2017-06-22T23:24:47.996Z,21.20
2017-06-22T23:27:16.271Z,21.20
2017-06-22T23:29:44.584Z,21.20
2017-06-22T23:32:12.847Z,21.30
2017-06-22T23:34:41.158Z,21.20
2017-06-22T23:37:09.423Z,21.20
2017-06-22T23:39:37.732Z,21.00
2017-06-22T23:42:05.995Z,20.80
2017-06-22T23:44:34.294Z,20.80
2017-06-22T23:47:02.562Z,20.70
2017-06-22T23:49:30.878Z,20.90
2017-06-22T23:51:59.141Z,20.80
2017-06-22T23:54:27.404Z,20.90
2017-06-22T23:56:55.703Z,20.70
2017-06-22T23:59:23.970Z,20.80
